Time;durP1;ratioP1;P1;durP2;ratioP2;P2;SDS_P1;SDS_P2;PMS_P1;PMS_P2;Temp;Humidity;BMP_temperature;BMP_pressure;BME280_temperature;BME280_humidity;BME280_pressure;Samples;Min_cycle;Max_cycle;Signal;HPM_P1;HPM_P2
2023/04/06 00:00:39;;;;;;;46.63;20.33;;;;;;;6.84;100.00;101680.28;5086184;28;20050;-80
2023/04/06 00:03:04;;;;;;;46.03;20.88;;;;;;;6.81;100.00;101679.56;5072920;28;20362;-79
2023/04/06 00:05:30;;;;;;;46.80;20.67;;;;;;;6.73;100.00;101671.38;5078807;28;20024;-80
2023/04/06 00:07:57;;;;;;;50.78;22.20;;;;;;;6.73;100.00;101668.69;5079075;28;20078;-79
2023/04/06 00:10:22;;;;;;;53.38;20.67;;;;;;;6.73;100.00;101675.88;5077381;28;20024;-79
2023/04/06 00:12:48;;;;;;;42.60;19.15;;;;;;;6.71;100.00;101669.81;5077045;28;20028;-78
2023/04/06 00:15:13;;;;;;;48.28;21.13;;;;;;;6.70;100.00;101668.13;5086260;28;20127;-79
2023/04/06 00:17:38;;;;;;;46.10;20.25;;;;;;;6.66;100.00;101664.91;5086463;28;20032;-80
2023/04/06 00:20:04;;;;;;;50.05;20.33;;;;;;;6.61;100.00;101664.47;5082829;28;20477;-81
2023/04/06 00:22:30;;;;;;;46.15;20.52;;;;;;;6.62;100.00;101660.78;5081071;28;20087;-80
2023/04/06 00:24:55;;;;;;;48.35;21.88;;;;;;;6.60;100.00;101654.72;5065842;28;20083;-81
2023/04/06 00:27:20;;;;;;;45.33;20.52;;;;;;;6.56;100.00;101656.00;5066861;28;20071;-79
2023/04/06 00:29:46;;;;;;;48.42;21.65;;;;;;;6.53;100.00;101654.44;5063927;28;20034;-78
2023/04/06 00:32:12;;;;;;;47.85;22.25;;;;;;;6.51;100.00;101648.38;5077473;28;20067;-79
2023/04/06 00:34:37;;;;;;;52.55;22.73;;;;;;;6.49;100.00;101644.13;5079796;28;20468;-79
2023/04/06 00:37:03;;;;;;;45.47;20.60;;;;;;;6.44;100.00;101638.34;5078523;28;20024;-78
2023/04/06 00:39:28;;;;;;;49.50;20.67;;;;;;;6.36;100.00;101634.50;5081918;28;20043;-80
2023/04/06 00:41:54;;;;;;;43.95;18.92;;;;;;;6.38;100.00;101631.72;5082422;28;20059;-79
2023/04/06 00:44:20;;;;;;;43.53;19.02;;;;;;;6.40;100.00;101634.25;5085861;28;20025;-81
2023/04/06 00:46:46;;;;;;;43.42;20.27;;;;;;;6.35;100.00;101629.31;5077949;28;20076;-80
2023/04/06 00:49:11;;;;;;;43.70;19.33;;;;;;;6.29;100.00;101625.38;5071208;28;20052;-78
2023/04/06 00:51:36;;;;;;;42.15;20.50;;;;;;;6.28;100.00;101618.31;5074536;28;20013;-79
2023/04/06 00:54:02;;;;;;;47.03;20.08;;;;;;;6.31;100.00;101615.34;5062497;28;20418;-80
2023/04/06 00:56:27;;;;;;;38.83;19.50;;;;;;;6.30;100.00;101618.19;5063038;28;20029;-79
2023/04/06 00:58:53;;;;;;;43.08;19.60;;;;;;;6.33;100.00;101610.72;5061383;28;20040;-78
2023/04/06 01:01:18;;;;;;;41.50;18.25;;;;;;;6.32;100.00;101606.38;5091591;28;20047;-78
2023/04/06 01:03:47;;;;;;;40.35;18.45;;;;;;;6.30;100.00;101608.34;5058078;28;20031;-80
2023/04/06 01:06:12;;;;;;;42.03;17.63;;;;;;;6.24;100.00;101605.34;5057990;28;20458;-79
2023/04/06 01:08:38;;;;;;;37.72;17.70;;;;;;;6.26;100.00;101606.91;5073547;28;20081;-79
2023/04/06 01:11:03;;;;;;;34.53;17.08;;;;;;;6.25;100.00;101594.53;5060882;28;20503;-77
2023/04/06 01:13:28;;;;;;;34.63;17.17;;;;;;;6.19;100.00;101597.75;5078014;28;20111;-78
2023/04/06 01:15:54;;;;;;;35.72;17.08;;;;;;;6.24;100.00;101591.97;5079111;28;20024;-80
2023/04/06 01:18:26;;;;;;;28.88;15.70;;;;;;;6.22;100.00;101577.91;5062750;28;20033;-78
2023/04/06 01:20:51;;;;;;;36.70;15.85;;;;;;;6.23;100.00;101579.59;5065634;28;20048;-79
2023/04/06 01:23:16;;;;;;;32.42;15.80;;;;;;;6.20;100.00;101580.72;5076092;28;20052;-79
2023/04/06 01:25:42;;;;;;;36.00;14.52;;;;;;;6.15;100.00;101574.94;5069368;28;20033;-78
2023/04/06 01:28:07;;;;;;;30.73;15.00;;;;;;;6.15;100.00;101564.25;5074388;28;20052;-79
2023/04/06 01:30:32;;;;;;;31.45;14.43;;;;;;;6.26;100.00;101569.47;5096647;28;20060;-79
2023/04/06 01:32:58;;;;;;;33.10;14.95;;;;;;;6.29;100.00;101568.34;5097731;28;20041;-80
2023/04/06 01:35:26;;;;;;;32.42;15.07;;;;;;;6.25;100.00;101569.63;5097866;28;20080;-78
2023/04/06 01:37:51;;;;;;;28.00;13.15;;;;;;;6.28;100.00;101559.50;5097600;28;20024;-79
2023/04/06 01:40:17;;;;;;;27.30;13.15;;;;;;;6.28;100.00;101566.69;5097372;28;20040;-78
2023/04/06 01:42:42;;;;;;;24.63;12.40;;;;;;;6.34;100.00;101556.25;5097221;28;20028;-79
2023/04/06 01:45:08;;;;;;;21.90;11.35;;;;;;;6.25;100.00;101551.75;5096570;28;20024;-81
2023/04/06 01:47:33;;;;;;;23.30;11.70;;;;;;;6.21;100.00;101549.47;5088552;28;20013;-80
2023/04/06 01:49:58;;;;;;;21.38;11.80;;;;;;;6.19;100.00;101546.09;5081959;28;20373;-80
2023/04/06 01:52:24;;;;;;;25.55;12.30;;;;;;;6.28;100.00;101550.63;5092580;28;20036;-81
2023/04/06 01:54:49;;;;;;;26.73;12.23;;;;;;;6.30;100.00;101538.81;5092087;28;20037;-80
2023/04/06 01:57:15;;;;;;;20.48;11.73;;;;;;;6.33;100.00;101538.53;5078178;28;20044;-79
2023/04/06 01:59:40;;;;;;;22.90;11.90;;;;;;;6.42;100.00;101541.38;5078877;28;20055;-80
2023/04/06 02:02:05;;;;;;;23.05;11.18;;;;;;;6.33;100.00;101533.19;5096366;28;20035;-79
2023/04/06 02:04:31;;;;;;;24.27;11.80;;;;;;;6.36;100.00;101526.72;5077743;28;20033;-78
2023/04/06 02:06:56;;;;;;;22.60;11.32;;;;;;;6.42;100.00;101530.69;5076720;28;20047;-79
2023/04/06 02:09:21;;;;;;;24.15;11.48;;;;;;;6.38;100.00;101519.44;5079583;28;20104;-79
2023/04/06 02:11:47;;;;;;;26.48;11.70;;;;;;;6.41;100.00;101518.31;5097112;28;20036;-79
2023/04/06 02:14:12;;;;;;;22.30;10.45;;;;;;;6.39;100.00;101521.09;5078407;28;20044;-80
2023/04/06 02:16:38;;;;;;;22.92;11.27;;;;;;;6.41;100.00;101512.97;5076644;28;20048;-79
2023/04/06 02:19:03;;;;;;;22.42;11.10;;;;;;;6.36;100.00;101511.53;5093202;28;20093;-80
2023/04/06 02:21:29;;;;;;;27.10;11.32;;;;;;;6.39;99.82;101507.72;5089891;28;20028;-78
2023/04/06 02:23:54;;;;;;;20.10;10.88;;;;;;;6.42;100.00;101507.44;5089625;28;20084;-79
2023/04/06 02:26:20;;;;;;;19.08;10.35;;;;;;;6.40;99.86;101516.59;5085834;28;20032;-78
2023/04/06 02:28:45;;;;;;;20.58;10.93;;;;;;;6.40;99.05;101516.59;5080961;28;20048;-79
2023/04/06 02:31:11;;;;;;;21.77;10.60;;;;;;;6.31;99.48;101508.44;5070273;28;20074;-80
2023/04/06 02:33:36;;;;;;;18.88;10.25;;;;;;;6.27;99.23;101508.84;5061293;28;20025;-82
2023/04/06 02:36:02;;;;;;;23.85;10.75;;;;;;;6.26;99.65;101499.97;5063508;28;20032;-81
2023/04/06 02:38:27;;;;;;;21.88;11.70;;;;;;;6.30;99.73;101504.06;5060765;28;20419;-77
2023/04/06 02:40:53;;;;;;;19.10;11.05;;;;;;;6.37;100.00;101502.53;5056839;28;20028;-77
2023/04/06 02:43:19;;;;;;;22.15;11.52;;;;;;;6.37;100.00;101491.84;5056767;28;20024;-79
2023/04/06 02:45:44;;;;;;;24.38;11.25;;;;;;;6.34;100.00;101486.75;5056446;28;20113;-78
2023/04/06 02:48:10;;;;;;;22.48;11.30;;;;;;;6.33;99.25;101485.06;5067553;28;20052;-78
2023/04/06 02:50:35;;;;;;;23.35;11.45;;;;;;;6.37;99.33;101486.50;5082570;28;20048;-80
2023/04/06 02:53:00;;;;;;;31.88;11.63;;;;;;;6.38;99.37;101482.84;5086917;28;20036;-79
2023/04/06 02:55:26;;;;;;;26.48;10.90;;;;;;;6.35;98.99;101485.78;5086855;28;20024;-79
2023/04/06 02:57:51;;;;;;;24.02;11.60;;;;;;;6.42;99.93;101471.84;5084960;28;20464;-80
2023/04/06 03:00:17;;;;;;;25.00;12.40;;;;;;;6.38;98.18;101480.16;5083961;28;20028;-80
2023/04/06 03:02:42;;;;;;;26.08;11.77;;;;;;;6.40;98.73;101474.69;5062282;28;20541;-80
2023/04/06 03:05:08;;;;;;;22.38;11.60;;;;;;;6.45;99.12;101475.13;5069817;28;20044;-80
2023/04/06 03:07:33;;;;;;;22.70;12.15;;;;;;;6.44;99.30;101475.25;5068501;28;20060;-80
2023/04/06 03:09:59;;;;;;;21.92;11.73;;;;;;;6.41;99.92;101470.19;5064128;28;20044;-82
2023/04/06 03:12:24;;;;;;;28.50;12.23;;;;;;;6.42;100.00;101474.53;5065692;28;20032;-78
2023/04/06 03:14:49;;;;;;;22.92;11.48;;;;;;;6.45;100.00;101477.78;5064985;28;20029;-77
2023/04/06 03:17:15;;;;;;;27.13;12.48;;;;;;;6.44;99.58;101472.56;5064721;28;20033;-78
2023/04/06 03:19:40;;;;;;;25.13;12.30;;;;;;;6.47;100.00;101461.59;5081877;28;20040;-80
2023/04/06 03:22:06;;;;;;;25.20;11.93;;;;;;;6.45;99.75;101455.53;5089701;28;20016;-82
2023/04/06 03:24:31;;;;;;;25.05;12.50;;;;;;;6.51;100.00;101461.19;5087992;28;20041;-82
2023/04/06 03:26:56;;;;;;;23.52;12.20;;;;;;;6.50;100.00;101451.47;5077562;28;20049;-80
2023/04/06 03:29:22;;;;;;;28.30;12.35;;;;;;;6.48;100.00;101460.63;5070165;28;20017;-81
2023/04/06 03:31:47;;;;;;;27.52;14.23;;;;;;;6.49;100.00;101456.94;5086775;28;20024;-80
2023/04/06 03:34:12;;;;;;;26.05;12.32;;;;;;;6.49;100.00;101451.59;5085542;28;20024;-80
2023/04/06 03:36:38;;;;;;;29.08;13.25;;;;;;;6.50;100.00;101458.63;5083427;28;20071;-81
2023/04/06 03:39:04;;;;;;;24.27;12.20;;;;;;;6.47;100.00;101453.56;5075878;28;20055;-82
2023/04/06 03:41:29;;;;;;;24.23;12.18;;;;;;;6.44;100.00;101443.16;5076162;28;20326;-80
2023/04/06 03:43:55;;;;;;;27.88;13.35;;;;;;;6.41;100.00;101444.28;5066198;28;20116;-80
2023/04/06 03:46:20;;;;;;;27.40;13.00;;;;;;;6.38;100.00;101448.06;5064481;28;20084;-78
2023/04/06 03:48:48;;;;;;;26.35;13.40;;;;;;;6.43;100.00;101438.81;5076681;28;20033;-78
2023/04/06 03:51:13;;;;;;;26.50;13.20;;;;;;;6.44;100.00;101444.00;5063497;28;20037;-77
2023/04/06 03:53:39;;;;;;;27.20;13.63;;;;;;;6.40;100.00;101441.72;5063195;28;20413;-78
2023/04/06 03:56:05;;;;;;;30.40;12.95;;;;;;;6.38;100.00;101440.06;5081737;28;20424;-79
2023/04/06 03:58:30;;;;;;;32.97;13.63;;;;;;;6.47;100.00;101440.19;5094895;28;20051;-79
2023/04/06 04:00:56;;;;;;;31.25;14.25;;;;;;;6.50;100.00;101437.22;5077683;28;20088;-77
2023/04/06 04:03:23;;;;;;;29.08;13.57;;;;;;;6.54;100.00;101438.66;5062936;28;20040;-78
2023/04/06 04:05:48;;;;;;;32.87;13.73;;;;;;;6.53;100.00;101436.94;5066559;28;20056;-78
2023/04/06 04:08:14;;;;;;;34.97;14.52;;;;;;;6.55;100.00;101443.84;5068155;28;20029;-79
2023/04/06 04:10:39;;;;;;;25.80;13.70;;;;;;;6.60;100.00;101440.75;5061578;28;20056;-79
2023/04/06 04:13:05;;;;;;;25.88;13.80;;;;;;;6.65;100.00;101441.19;5066172;28;20588;-80
2023/04/06 04:15:30;;;;;;;31.92;14.55;;;;;;;6.65;100.00;101445.69;5057202;28;20125;-81
2023/04/06 04:17:55;;;;;;;58.38;15.85;;;;;;;6.63;100.00;101437.78;5057154;28;20025;-80
2023/04/06 04:20:21;;;;;;;28.20;13.88;;;;;;;6.67;100.00;101433.03;5078359;28;20031;-81
2023/04/06 04:22:47;;;;;;;27.83;14.18;;;;;;;6.63;100.00;101436.97;5065382;28;20564;-78
2023/04/06 04:25:13;;;;;;;30.88;15.18;;;;;;;6.71;100.00;101435.25;5070509;28;20040;-79
2023/04/06 04:27:39;;;;;;;27.75;13.77;;;;;;;6.66;100.00;101437.53;5072163;28;20077;-80
2023/04/06 04:30:06;;;;;;;36.60;15.02;;;;;;;6.69;100.00;101439.94;5067199;28;20085;-78
2023/04/06 04:32:31;;;;;;;33.40;14.98;;;;;;;6.71;100.00;101435.25;5068309;28;20044;-79
2023/04/06 04:34:56;;;;;;;32.13;14.82;;;;;;;6.74;100.00;101431.44;5065886;28;20036;-80
2023/04/06 04:37:22;;;;;;;34.28;14.43;;;;;;;6.74;100.00;101440.34;5080835;28;20024;-78
2023/04/06 04:39:47;;;;;;;32.58;16.73;;;;;;;6.74;100.00;101431.44;5072971;28;20025;-79
2023/04/06 04:42:13;;;;;;;31.83;15.05;;;;;;;6.75;100.00;101438.50;5076744;28;20021;-78
2023/04/06 04:44:38;;;;;;;33.53;16.23;;;;;;;6.75;100.00;101435.84;5060878;28;20036;-80
2023/04/06 04:47:04;;;;;;;35.60;16.48;;;;;;;6.75;100.00;101439.34;5058805;28;20450;-77
2023/04/06 04:49:30;;;;;;;33.80;15.77;;;;;;;6.76;100.00;101438.34;5070993;28;20024;-79
2023/04/06 04:51:55;;;;;;;38.55;17.88;;;;;;;6.80;100.00;101442.44;5065257;28;20051;-79
2023/04/06 04:54:20;;;;;;;35.13;17.15;;;;;;;6.81;100.00;101441.44;5064206;28;20025;-80
2023/04/06 04:56:46;;;;;;;37.85;17.77;;;;;;;6.81;100.00;101435.25;5077197;28;20036;-79
2023/04/06 04:59:11;;;;;;;35.78;17.20;;;;;;;6.82;100.00;101437.78;5057563;28;20035;-80
2023/04/06 05:01:36;;;;;;;33.53;18.23;;;;;;;6.87;100.00;101428.47;5056784;28;20425;-80
2023/04/06 05:04:02;;;;;;;42.30;18.33;;;;;;;6.91;100.00;101435.25;5056743;28;20029;-79
2023/04/06 05:06:27;;;;;;;40.20;18.35;;;;;;;6.90;100.00;101429.06;5075267;28;20477;-80
2023/04/06 05:08:52;;;;;;;41.80;18.77;;;;;;;6.94;100.00;101433.13;5075768;28;20039;-79
2023/04/06 05:11:18;;;;;;;41.20;20.42;;;;;;;6.90;100.00;101433.53;5076749;28;20036;-78
2023/04/06 05:13:43;;;;;;;35.30;18.63;;;;;;;6.93;100.00;101433.28;5077258;28;20029;-79
2023/04/06 05:16:09;;;;;;;40.17;20.27;;;;;;;6.94;100.00;101435.78;5077174;28;20075;-80
2023/04/06 05:18:34;;;;;;;43.50;20.75;;;;;;;6.94;100.00;101434.94;5077334;28;20024;-80
2023/04/06 05:21:00;;;;;;;42.55;21.20;;;;;;;6.96;100.00;101428.47;5076901;28;20035;-79
2023/04/06 05:23:25;;;;;;;41.30;21.10;;;;;;;6.98;100.00;101426.50;5077211;28;20055;-80
2023/04/06 05:25:51;;;;;;;41.03;20.90;;;;;;;7.02;100.00;101432.41;5077406;28;20043;-79
2023/04/06 05:28:16;;;;;;;42.63;20.75;;;;;;;7.04;100.00;101430.44;5076372;28;20055;-78
2023/04/06 05:30:43;;;;;;;44.80;23.02;;;;;;;7.11;100.00;101426.19;5076193;28;20032;-79
2023/04/06 05:33:09;;;;;;;46.35;22.55;;;;;;;7.09;100.00;101438.03;5076613;28;20036;-79
2023/04/06 05:35:35;;;;;;;45.67;23.92;;;;;;;7.04;100.00;101419.72;5080634;28;20028;-79
2023/04/06 05:38:00;;;;;;;50.15;22.77;;;;;;;7.05;100.00;101421.41;5080743;28;20048;-78
2023/04/06 05:40:25;;;;;;;47.58;24.60;;;;;;;7.12;100.00;101427.88;5067586;28;20437;-79
2023/04/06 05:42:51;;;;;;;56.28;24.85;;;;;;;7.12;100.00;101425.19;5060473;28;20028;-79
2023/04/06 05:45:18;;;;;;;50.78;25.52;;;;;;;7.16;100.00;101421.25;5060892;28;20039;-80
2023/04/06 05:47:44;;;;;;;52.88;25.05;;;;;;;7.16;100.00;101421.25;5077724;28;20023;-78
2023/04/06 05:50:10;;;;;;;48.42;24.70;;;;;;;7.21;100.00;101410.94;5083081;28;20028;-80
2023/04/06 05:52:35;;;;;;;53.30;26.35;;;;;;;7.24;100.00;101413.34;5074288;28;20051;-79
2023/04/06 05:55:01;;;;;;;56.60;26.00;;;;;;;7.19;100.00;101412.91;5065048;28;20119;-80
2023/04/06 05:57:26;;;;;;;53.15;27.00;;;;;;;7.24;100.00;101409.78;5065614;28;20428;-79
2023/04/06 05:59:52;;;;;;;62.95;28.25;;;;;;;7.25;100.00;101415.00;5077130;28;20056;-80
2023/04/06 06:02:18;;;;;;;52.92;26.58;;;;;;;7.35;100.00;101416.81;5079877;28;20039;-77
2023/04/06 06:04:43;;;;;;;56.35;26.60;;;;;;;7.36;100.00;101413.13;5078960;28;20028;-78
2023/04/06 06:07:08;;;;;;;51.67;27.23;;;;;;;7.39;100.00;101415.53;5081717;28;20071;-78
2023/04/06 06:09:34;;;;;;;53.53;27.20;;;;;;;7.39;100.00;101410.16;5079705;28;20174;-79
2023/04/06 06:12:00;;;;;;;53.88;27.05;;;;;;;7.35;100.00;101416.81;5080935;28;20388;-80
2023/04/06 06:14:28;;;;;;;56.35;28.10;;;;;;;7.38;100.00;101419.19;5076239;28;20017;-78
2023/04/06 06:16:53;;;;;;;57.53;27.75;;;;;;;7.43;100.00;101417.75;5078265;28;20021;-82
2023/04/06 06:19:19;;;;;;;58.28;28.70;;;;;;;7.46;100.00;101424.66;5080546;28;20032;-77
2023/04/06 06:21:44;;;;;;;60.28;28.70;;;;;;;7.46;100.00;101422.81;5081917;28;20052;-79
2023/04/06 06:24:10;;;;;;;59.08;29.30;;;;;;;7.40;100.00;101419.91;5080027;28;20040;-79
2023/04/06 06:26:36;;;;;;;58.42;29.33;;;;;;;7.44;100.00;101415.91;5082767;28;20512;-80
2023/04/06 06:29:03;;;;;;;116.88;30.27;;;;;;;7.44;100.00;101421.28;5081568;28;20040;-79
2023/04/06 06:31:28;;;;;;;54.15;28.40;;;;;;;7.44;100.00;101424.78;5081962;28;20056;-81
2023/04/06 06:33:53;;;;;;;55.67;29.05;;;;;;;7.48;100.00;101417.31;5082047;28;20438;-79
2023/04/06 06:36:19;;;;;;;51.35;28.27;;;;;;;7.43;100.00;101419.59;5079772;28;20051;-79
2023/04/06 06:38:44;;;;;;;52.05;27.27;;;;;;;7.47;100.00;101424.50;5081715;28;20027;-79
2023/04/06 06:41:10;;;;;;;53.70;28.27;;;;;;;7.46;100.00;101424.66;5079939;28;20074;-79
2023/04/06 06:43:35;;;;;;;58.47;28.55;;;;;;;7.54;100.00;101427.44;5083874;28;20400;-81
2023/04/06 06:46:01;;;;;;;56.75;27.95;;;;;;;7.57;100.00;101424.47;5081314;28;20497;-80
2023/04/06 06:48:26;;;;;;;52.47;28.58;;;;;;;7.59;100.00;101419.81;5081405;28;20036;-80
2023/04/06 06:50:52;;;;;;;52.83;28.27;;;;;;;7.67;100.00;101427.94;5081546;28;20024;-81
2023/04/06 06:53:17;;;;;;;52.45;28.33;;;;;;;7.63;100.00;101421.19;5079636;28;20040;-79
2023/04/06 06:55:44;;;;;;;52.55;28.00;;;;;;;7.62;100.00;101424.88;5079900;28;20017;-79
2023/04/06 06:58:09;;;;;;;58.08;29.77;;;;;;;7.60;100.00;101416.13;5079265;28;20577;-79
2023/04/06 07:00:35;;;;;;;51.38;27.70;;;;;;;7.65;100.00;101429.91;5081166;28;20088;-78
2023/04/06 07:03:00;;;;;;;55.88;29.80;;;;;;;7.72;100.00;101429.34;5080845;28;20028;-79
2023/04/06 07:05:26;;;;;;;60.90;28.90;;;;;;;7.73;100.00;101421.13;5079958;28;20025;-79
2023/04/06 07:07:52;;;;;;;56.22;29.23;;;;;;;7.72;100.00;101421.31;5078128;28;20039;-78
2023/04/06 07:10:17;;;;;;;53.03;28.88;;;;;;;7.76;100.00;101420.00;5081201;28;20033;-78
2023/04/06 07:12:42;;;;;;;54.55;29.30;;;;;;;7.70;100.00;101421.44;5078382;28;20082;-80
2023/04/06 07:15:08;;;;;;;43.33;24.80;;;;;;;7.74;100.00;101427.34;5076513;28;20028;-79
2023/04/06 07:17:33;;;;;;;43.38;25.85;;;;;;;7.77;100.00;101413.66;5079174;28;20078;-78
2023/04/06 07:19:59;;;;;;;45.33;24.83;;;;;;;7.76;100.00;101415.47;5076647;28;20035;-79
2023/04/06 07:22:24;;;;;;;39.38;23.67;;;;;;;7.76;100.00;101420.00;5076918;28;20067;-79
2023/04/06 07:24:50;;;;;;;40.35;23.10;;;;;;;7.84;100.00;101417.41;5076793;28;20100;-79
2023/04/06 07:27:16;;;;;;;46.05;24.38;;;;;;;7.78;100.00;101412.66;5075512;28;20040;-78
2023/04/06 07:29:41;;;;;;;37.92;22.15;;;;;;;7.85;100.00;101413.75;5078928;28;20029;-79
2023/04/06 07:32:07;;;;;;;40.30;22.77;;;;;;;7.87;100.00;101412.63;5077378;28;20039;-78
2023/04/06 07:34:32;;;;;;;38.95;22.38;;;;;;;7.88;100.00;101418.81;5077222;28;20024;-77
2023/04/06 07:36:57;;;;;;;39.53;21.42;;;;;;;7.90;100.00;101419.50;5075733;28;20033;-79
2023/04/06 07:39:23;;;;;;;33.45;19.30;;;;;;;7.88;100.00;101416.97;5078139;28;20029;-81
2023/04/06 07:41:48;;;;;;;34.45;19.75;;;;;;;7.93;100.00;101416.53;5076820;28;20032;-81
2023/04/06 07:44:14;;;;;;;32.50;18.35;;;;;;;7.94;100.00;101407.47;5076822;28;20021;-76
2023/04/06 07:46:39;;;;;;;30.60;17.05;;;;;;;7.95;100.00;101398.44;5075278;28;20020;-79
2023/04/06 07:49:05;;;;;;;32.22;17.73;;;;;;;8.02;100.00;101404.88;5075818;28;20067;-78
2023/04/06 07:51:30;;;;;;;28.00;16.73;;;;;;;7.96;100.00;101408.19;5077025;28;20040;-77
2023/04/06 07:53:56;;;;;;;26.60;17.10;;;;;;;7.91;100.00;101410.47;5077781;28;20067;-79
2023/04/06 07:56:21;;;;;;;31.35;16.50;;;;;;;7.90;100.00;101404.28;5079049;28;20032;-78
2023/04/06 07:58:47;;;;;;;26.05;15.65;;;;;;;7.94;100.00;101417.38;5078601;28;20377;-77
2023/04/06 08:01:12;;;;;;;39.95;18.33;;;;;;;7.83;100.00;101421.09;5079938;28;20491;-79
2023/04/06 08:03:38;;;;;;;33.65;19.23;;;;;;;7.94;100.00;101412.84;5079815;28;20036;-79
2023/04/06 08:06:04;;;;;;;33.88;17.35;;;;;;;7.92;100.00;101417.50;5080724;28;20032;-77
2023/04/06 08:08:30;;;;;;;31.77;17.65;;;;;;;7.83;100.00;101427.28;5078659;28;20017;-78
2023/04/06 08:10:56;;;;;;;37.28;17.60;;;;;;;7.80;100.00;101421.41;5078524;28;20020;-79
2023/04/06 08:13:21;;;;;;;31.90;16.75;;;;;;;7.80;100.00;101426.75;5078377;28;20084;-79
2023/04/06 08:15:46;;;;;;;31.30;17.25;;;;;;;7.87;100.00;101430.50;5078260;28;20445;-79
2023/04/06 08:18:12;;;;;;;35.25;19.52;;;;;;;7.84;100.00;101422.78;5078191;28;20032;-77
2023/04/06 08:20:38;;;;;;;46.60;20.60;;;;;;;7.84;100.00;101430.81;5076812;28;20074;-78
2023/04/06 08:23:03;;;;;;;41.25;19.70;;;;;;;7.80;100.00;101432.13;5078447;28;20039;-79
2023/04/06 08:25:29;;;;;;;38.13;18.75;;;;;;;7.94;100.00;101433.44;5078790;28;20107;-79
2023/04/06 08:27:55;;;;;;;38.85;20.92;;;;;;;7.96;100.00;101437.66;5078395;28;20060;-78
2023/04/06 08:30:21;;;;;;;41.10;18.05;;;;;;;7.89;100.00;101439.25;5078677;28;20111;-81
2023/04/06 08:32:46;;;;;;;35.15;17.35;;;;;;;7.94;100.00;101442.31;5078106;28;20105;-79
2023/04/06 08:35:11;;;;;;;40.75;17.08;;;;;;;8.02;100.00;101436.22;5078180;28;20024;-79
2023/04/06 08:37:37;;;;;;;35.67;15.35;;;;;;;7.97;100.00;101427.78;5076202;28;20376;-80
2023/04/06 08:40:03;;;;;;;35.80;16.73;;;;;;;7.86;100.00;101426.16;5078329;28;20158;-78
2023/04/06 08:42:32;;;;;;;40.03;16.80;;;;;;;7.91;100.00;101421.19;5079344;28;20032;-82
2023/04/06 08:44:57;;;;;;;39.00;17.40;;;;;;;7.99;100.00;101426.63;5079529;28;20141;-80
2023/04/06 08:47:23;;;;;;;34.65;16.10;;;;;;;7.98;100.00;101432.13;5078891;28;20461;-81
2023/04/06 08:49:48;;;;;;;31.70;15.18;;;;;;;7.90;100.00;101422.19;5078138;28;20542;-82
2023/04/06 08:52:17;;;;;;;30.33;12.70;;;;;;;7.91;100.00;101423.88;5079410;28;20081;-80
2023/04/06 08:54:43;;;;;;;32.08;11.73;;;;;;;7.81;100.00;101423.06;5079193;28;20410;-81
2023/04/06 08:57:08;;;;;;;24.60;10.77;;;;;;;7.80;100.00;101418.72;5079205;28;20024;-81
2023/04/06 08:59:34;;;;;;;27.58;11.60;;;;;;;7.76;100.00;101418.16;5081768;28;20044;-80
2023/04/06 09:02:03;;;;;;;26.27;10.20;;;;;;;7.81;100.00;101417.72;5067328;28;20025;-82
2023/04/06 09:04:28;;;;;;;21.90;9.90;;;;;;;7.74;100.00;101419.31;5080876;28;20026;-80
2023/04/06 09:06:54;;;;;;;26.42;10.55;;;;;;;7.71;100.00;101417.75;5059293;28;20041;-79
2023/04/06 09:09:19;;;;;;;30.85;9.88;;;;;;;7.78;100.00;101423.38;5055154;28;20036;-79
2023/04/06 09:11:49;;;;;;;28.65;10.95;;;;;;;7.73;100.00;101423.81;5055029;28;20085;-79
2023/04/06 09:14:16;;;;;;;25.35;8.82;;;;;;;7.89;100.00;101415.97;5054252;28;20159;-80
2023/04/06 09:16:43;;;;;;;18.70;8.13;;;;;;;7.87;100.00;101425.16;5056183;28;20357;-80
2023/04/06 09:19:09;;;;;;;22.55;8.40;;;;;;;7.82;100.00;101414.03;5055436;28;20036;-80
2023/04/06 09:21:36;;;;;;;125.40;11.70;;;;;;;7.63;100.00;101420.34;5055015;28;20025;-78
2023/04/06 09:24:03;;;;;;;20.15;9.55;;;;;;;7.57;100.00;101421.78;5055249;28;20025;-80
2023/04/06 09:26:29;;;;;;;24.48;9.57;;;;;;;7.56;100.00;101420.09;5054913;28;20029;-81
2023/04/06 09:28:55;;;;;;;22.63;10.57;;;;;;;7.53;100.00;101419.53;5054743;28;20128;-81
2023/04/06 09:31:29;;;;;;;25.15;11.32;;;;;;;7.47;100.00;101426.34;5055001;28;20040;-80
2023/04/06 09:33:55;;;;;;;22.85;11.20;;;;;;;7.31;100.00;101423.44;5054755;28;20021;-78
2023/04/06 09:36:30;;;;;;;29.23;11.82;;;;;;;7.20;100.00;101419.13;5055977;28;20082;-80
2023/04/06 09:39:00;;;;;;;36.65;13.15;;;;;;;7.25;100.00;101428.38;5053886;28;20036;-78
2023/04/06 09:41:30;;;;;;;28.63;12.52;;;;;;;7.17;100.00;101414.91;5056233;28;20518;-77
2023/04/06 09:44:11;;;;;;;38.47;14.05;;;;;;;7.21;100.00;101410.94;5056975;28;20024;-78
2023/04/06 09:46:41;;;;;;;33.50;14.55;;;;;;;7.15;100.00;101424.91;5055432;28;20032;-75
2023/04/06 09:49:08;;;;;;;36.38;14.75;;;;;;;7.08;100.00;101421.09;5054390;28;20116;-79
2023/04/06 09:51:39;;;;;;;39.00;15.88;;;;;;;7.21;100.00;101416.31;5058058;28;20652;-79
2023/04/06 09:54:06;;;;;;;45.53;16.75;;;;;;;7.12;100.00;101422.50;5055460;28;20033;-77
2023/04/06 09:56:39;;;;;;;41.00;17.27;;;;;;;7.06;100.00;101422.25;5054288;28;20112;-78
2023/04/06 09:59:09;;;;;;;42.30;17.77;;;;;;;6.99;100.00;101422.00;5055364;28;20075;-79
2023/04/06 10:01:36;;;;;;;44.83;17.20;;;;;;;7.10;100.00;101418.28;5055299;28;20025;-79
2023/04/06 10:04:26;;;;;;;47.08;18.42;;;;;;;7.08;100.00;101414.91;5054708;28;20025;-79
2023/04/06 10:06:52;;;;;;;41.60;17.60;;;;;;;7.06;100.00;101425.78;5054873;28;20039;-78
2023/04/06 10:09:18;;;;;;;39.45;17.17;;;;;;;7.08;100.00;101423.78;5054219;28;20067;-79
2023/04/06 10:11:45;;;;;;;46.30;18.80;;;;;;;7.08;100.00;101422.94;5054235;28;20472;-78
2023/04/06 10:14:11;;;;;;;49.13;18.85;;;;;;;7.09;100.00;101416.63;5055747;28;20017;-79
2023/04/06 10:16:37;;;;;;;47.53;19.38;;;;;;;7.04;100.00;101419.72;5054551;28;20461;-79
2023/04/06 10:19:08;;;;;;;43.03;18.52;;;;;;;7.01;100.00;101420.00;5055697;28;20091;-80
2023/04/06 10:21:35;;;;;;;52.25;20.10;;;;;;;7.05;100.00;101418.72;5055051;28;20061;-80
2023/04/06 10:24:02;;;;;;;59.65;20.92;;;;;;;7.02;100.00;101402.97;5055974;28;20049;-78
2023/04/06 10:26:27;;;;;;;51.63;21.92;;;;;;;7.13;100.00;101405.47;5058001;28;20040;-79
2023/04/06 10:28:54;;;;;;;47.78;20.60;;;;;;;7.19;100.00;101396.84;5059531;28;20049;-81
2023/04/06 10:31:27;;;;;;;51.03;19.83;;;;;;;7.17;100.00;101419.41;5059001;28;20025;-80
2023/04/06 10:34:01;;;;;;;47.35;18.08;;;;;;;7.12;100.00;101403.78;5058119;28;20032;-81
2023/04/06 10:36:29;;;;;;;53.35;21.98;;;;;;;7.21;100.00;101394.88;5058437;28;20103;-79
2023/04/06 10:38:58;;;;;;;48.53;20.13;;;;;;;7.36;100.00;101400.59;5056590;28;20032;-79
2023/04/06 10:41:23;;;;;;;51.30;20.33;;;;;;;7.24;100.00;101409.78;5057837;28;20036;-80
2023/04/06 10:43:56;;;;;;;61.13;20.15;;;;;;;7.28;100.00;101394.28;5056257;28;20033;-80
2023/04/06 10:46:25;;;;;;;46.33;17.95;;;;;;;7.31;100.00;101399.34;5056944;28;20052;-78
2023/04/06 10:48:50;;;;;;;49.05;20.15;;;;;;;7.36;100.00;101397.06;5056169;28;20025;-78
2023/04/06 10:51:17;;;;;;;57.17;21.33;;;;;;;7.35;100.00;101384.69;5056146;28;20477;-79
2023/04/06 10:53:45;;;;;;;64.43;22.85;;;;;;;7.38;100.00;101389.75;5053445;28;20036;-79
2023/04/06 10:56:13;;;;;;;56.33;23.13;;;;;;;7.34;100.00;101382.97;5055141;28;20098;-79
2023/04/06 10:58:38;;;;;;;52.95;22.80;;;;;;;7.26;100.00;101386.41;5054725;28;20186;-78
2023/04/06 11:01:04;;;;;;;53.92;22.17;;;;;;;7.20;100.00;101376.28;5054251;28;20107;-80
2023/04/06 11:03:29;;;;;;;65.22;26.65;;;;;;;7.28;100.00;101381.75;5055654;28;20032;-79